Time;durP1;ratioP1;P1;durP2;ratioP2;P2;SDS_P1;SDS_P2;PMS_P1;PMS_P2;Temp;Humidity;BMP_temperature;BMP_pressure;BME280_temperature;BME280_humidity;BME280_pressure;Samples;Min_cycle;Max_cycle;Signal;HPM_P1;HPM_P2
2022/08/08 00:01:15;;;;;;;1999.90;999.90;;;18.20;99.90;;;;;;5051751;28;20396;-69
2022/08/08 00:04:03;;;;;;;1999.90;999.90;;;18.20;99.90;;;;;;5051643;28;20402;-69
2022/08/08 00:06:51;;;;;;;1999.90;999.90;;;18.10;99.90;;;;;;5051366;28;20423;-69
2022/08/08 00:09:38;;;;;;;1999.90;999.90;;;18.10;99.90;;;;;;5051653;28;20443;-69
2022/08/08 00:12:09;;;;;;;1999.90;999.90;;;18.10;99.90;;;;;;5051444;28;20809;-69
2022/08/08 00:14:44;;;;;;;1999.90;999.90;;;18.10;99.90;;;;;;5055098;28;20437;-69
2022/08/08 00:17:19;;;;;;;1999.90;999.90;;;18.10;99.90;;;;;;5055338;28;20902;-69
2022/08/08 00:19:57;;;;;;;1999.90;999.90;;;18.10;99.90;;;;;;5055553;28;20393;-69
2022/08/08 00:22:44;;;;;;;1999.90;999.90;;;18.10;99.90;;;;;;5055377;28;20430;-69
2022/08/08 00:25:16;;;;;;;1999.90;999.90;;;18.00;99.90;;;;;;5055456;28;20926;-69
2022/08/08 00:27:43;;;;;;;1999.90;999.90;;;17.90;99.90;;;;;;5055292;28;20465;-69
2022/08/08 00:30:11;;;;;;;1999.90;999.90;;;17.80;99.90;;;;;;5055374;28;20380;-69
2022/08/08 00:32:55;;;;;;;1999.90;999.90;;;17.80;99.90;;;;;;5054962;28;20461;-69
2022/08/08 00:35:55;;;;;;;1999.90;999.90;;;17.70;99.90;;;;;;5056556;28;20413;-69
2022/08/08 00:38:27;;;;;;;1999.90;999.90;;;17.70;99.90;;;;;;5056213;28;20418;-69
2022/08/08 00:41:04;;;;;;;1999.90;999.90;;;17.70;99.90;;;;;;5056854;28;20401;-69
2022/08/08 00:44:03;;;;;;;1999.90;999.90;;;17.60;99.90;;;;;;5057007;28;20430;-69
2022/08/08 00:46:38;;;;;;;1999.90;999.90;;;17.60;99.90;;;;;;5056491;28;20924;-69
2022/08/08 00:49:29;;;;;;;1999.90;999.90;;;17.50;99.90;;;;;;5057017;28;20413;-69
2022/08/08 00:52:09;;;;;;;1999.90;999.90;;;17.50;99.90;;;;;;5056636;28;20454;-69
2022/08/08 00:55:04;;;;;;;1999.90;999.90;;;17.40;99.90;;;;;;5056498;28;20369;-69
2022/08/08 00:58:06;;;;;;;1999.90;999.90;;;17.40;99.90;;;;;;5045159;28;20411;-69
2022/08/08 01:01:08;;;;;;;1999.90;999.90;;;17.50;99.90;;;;;;5057054;28;20424;-69
2022/08/08 01:03:43;;;;;;;1999.90;999.90;;;17.40;99.90;;;;;;5031391;28;20434;-69
2022/08/08 01:06:29;;;;;;;1999.90;999.90;;;17.30;99.90;;;;;;5056282;28;20398;-69
2022/08/08 01:09:19;;;;;;;1999.90;999.90;;;17.30;99.90;;;;;;5056368;28;20482;-69
2022/08/08 01:12:23;;;;;;;1999.90;999.90;;;17.30;99.90;;;;;;5056258;28;20454;-69
2022/08/08 01:15:26;;;;;;;1999.90;999.90;;;17.30;99.90;;;;;;5055968;28;20748;-70
2022/08/08 01:18:17;;;;;;;1999.90;999.90;;;17.10;99.90;;;;;;5055707;28;20397;-70
2022/08/08 01:21:06;;;;;;;1999.90;999.90;;;17.00;99.90;;;;;;5056000;28;20398;-69
2022/08/08 01:23:55;;;;;;;1999.90;999.90;;;16.90;99.90;;;;;;5056022;28;20457;-69
2022/08/08 01:26:45;;;;;;;1999.90;999.90;;;16.80;99.90;;;;;;5054191;28;20925;-69
2022/08/08 01:29:41;;;;;;;1999.90;999.90;;;16.80;99.90;;;;;;5054169;28;20429;-69
2022/08/08 01:32:41;;;;;;;1999.90;999.90;;;16.80;99.90;;;;;;5053912;28;20469;-69
2022/08/08 01:35:48;;;;;;;1999.90;999.90;;;16.70;99.90;;;;;;5054300;28;20415;-69
2022/08/08 01:38:35;;;;;;;1999.90;999.90;;;16.60;99.90;;;;;;4972991;28;20429;-69
2022/08/08 01:41:01;;;;;;;1999.90;999.90;;;16.50;99.90;;;;;;5052053;28;21009;-69
2022/08/08 01:43:48;;;;;;;1999.90;999.90;;;16.50;99.90;;;;;;5053824;28;20568;-69
2022/08/08 01:46:39;;;;;;;1999.90;999.90;;;16.50;99.90;;;;;;5053993;28;20550;-69
2022/08/08 01:49:20;;;;;;;1999.90;999.90;;;16.50;99.90;;;;;;5054014;28;20411;-69
2022/08/08 01:52:00;;;;;;;1999.90;999.90;;;16.50;99.90;;;;;;5053707;28;20453;-69
2022/08/08 01:54:38;;;;;;;1999.90;999.90;;;16.40;99.90;;;;;;5053942;28;20399;-69
2022/08/08 01:57:09;;;;;;;1999.90;999.90;;;16.40;99.90;;;;;;5053436;28;20403;-69
2022/08/08 01:59:52;;;;;;;1999.90;999.90;;;16.40;99.90;;;;;;5053635;28;20445;-69
2022/08/08 02:02:32;;;;;;;1999.90;999.90;;;16.30;99.90;;;;;;5053619;28;20421;-68
2022/08/08 02:05:25;;;;;;;1999.90;999.90;;;16.20;99.90;;;;;;5053617;28;20411;-69
2022/08/08 02:08:09;;;;;;;1999.90;999.90;;;16.10;99.90;;;;;;5053264;28;20410;-69
2022/08/08 02:11:06;;;;;;;1999.90;999.90;;;16.00;99.90;;;;;;5053449;28;20406;-69
2022/08/08 02:14:02;;;;;;;1999.90;999.90;;;15.90;99.90;;;;;;5047112;28;20500;-69
2022/08/08 02:17:02;;;;;;;1999.90;999.90;;;15.90;99.90;;;;;;5054426;28;20784;-69
2022/08/08 02:19:41;;;;;;;1999.90;999.90;;;15.90;99.90;;;;;;5054944;28;20419;-69
2022/08/08 02:22:32;;;;;;;1999.90;999.90;;;15.90;99.90;;;;;;5054725;28;20413;-69
2022/08/08 02:25:19;;;;;;;1999.90;999.90;;;15.90;99.90;;;;;;5054091;28;20466;-69
2022/08/08 02:27:56;;;;;;;1999.90;999.90;;;15.80;99.90;;;;;;5053884;28;20444;-69
2022/08/08 02:30:33;;;;;;;1999.90;999.90;;;15.80;99.90;;;;;;5055197;28;20760;-70
2022/08/08 02:33:12;;;;;;;1999.90;999.90;;;15.80;99.90;;;;;;5055948;28;20522;-69
2022/08/08 02:36:22;;;;;;;1999.90;999.90;;;15.80;99.90;;;;;;5052669;28;20768;-69
2022/08/08 02:38:56;;;;;;;1999.90;999.90;;;15.70;99.90;;;;;;5052658;28;20837;-69
2022/08/08 02:41:41;;;;;;;1999.90;999.90;;;15.70;99.90;;;;;;5052744;28;20794;-69
2022/08/08 02:44:25;;;;;;;1999.90;999.90;;;15.70;99.90;;;;;;5052743;28;20765;-69
2022/08/08 02:46:59;;;;;;;1999.90;999.90;;;15.60;99.90;;;;;;5052636;28;20405;-69
2022/08/08 02:49:46;;;;;;;1999.90;999.90;;;15.60;99.90;;;;;;5055889;28;20400;-69
2022/08/08 02:52:47;;;;;;;1999.90;999.90;;;15.60;99.90;;;;;;5055492;28;20452;-69
2022/08/08 02:55:47;;;;;;;1999.90;999.90;;;15.60;99.90;;;;;;5023522;28;20414;-69
2022/08/08 02:58:34;;;;;;;1999.90;999.90;;;15.60;99.90;;;;;;5010978;28;20414;-70
2022/08/08 03:01:19;;;;;;;1999.90;999.90;;;15.60;99.90;;;;;;5055954;28;20465;-69
2022/08/08 03:04:09;;;;;;;1999.90;999.90;;;15.50;99.90;;;;;;5054867;28;20413;-69
2022/08/08 03:06:56;;;;;;;1999.90;999.90;;;15.50;99.90;;;;;;5055129;28;20960;-69
2022/08/08 03:09:59;;;;;;;1999.90;999.90;;;15.50;99.90;;;;;;5054653;28;20892;-69
2022/08/08 03:12:39;;;;;;;1999.90;999.90;;;15.50;99.90;;;;;;5053649;28;20588;-69
2022/08/08 03:15:10;;;;;;;1999.90;999.90;;;15.40;99.90;;;;;;5052307;28;20818;-69
2022/08/08 03:17:52;;;;;;;1999.90;999.90;;;15.40;99.90;;;;;;5051957;28;20766;-69
2022/08/08 03:20:18;;;;;;;1999.90;999.90;;;15.40;99.90;;;;;;5035846;28;20401;-69
2022/08/08 03:22:47;;;;;;;1999.90;999.90;;;15.40;99.90;;;;;;5052047;28;20420;-69
2022/08/08 03:25:15;;;;;;;1999.90;999.90;;;15.40;99.90;;;;;;5052177;28;20700;-69
2022/08/08 03:27:53;;;;;;;1999.90;999.90;;;15.40;99.90;;;;;;5051729;28;20415;-69
2022/08/08 03:30:19;;;;;;;1999.90;999.90;;;15.40;99.90;;;;;;5052210;28;20923;-69
2022/08/08 03:35:30;;;;;;;1999.90;999.90;;;15.40;99.90;;;;;;5032401;28;21017;-66
2022/08/08 03:37:59;;;;;;;1999.90;999.90;;;15.40;99.90;;;;;;5031782;28;20780;-66
2022/08/08 03:40:25;;;;;;;1999.90;999.90;;;15.40;99.90;;;;;;5032105;28;20405;-66
2022/08/08 03:42:51;;;;;;;1999.90;999.90;;;15.30;99.90;;;;;;5031935;28;20425;-66
2022/08/08 03:45:17;;;;;;;1999.90;999.90;;;15.30;99.90;;;;;;5031810;28;20174;-66
2022/08/08 03:47:43;;;;;;;1999.90;999.90;;;15.30;99.90;;;;;;5031126;28;20170;-66
2022/08/08 03:50:17;;;;;;;1999.90;999.90;;;15.20;99.90;;;;;;5031924;28;20907;-66
2022/08/08 03:52:43;;;;;;;1999.90;999.90;;;15.20;99.90;;;;;;5031703;28;20465;-66
2022/08/08 03:55:11;;;;;;;1999.90;999.90;;;15.10;99.90;;;;;;5032131;28;20917;-66
2022/08/08 03:57:37;;;;;;;1999.90;999.90;;;15.10;99.90;;;;;;5031605;28;20492;-66
2022/08/08 04:00:11;;;;;;;1999.90;999.90;;;15.10;99.90;;;;;;5031766;28;20407;-66
2022/08/08 04:02:37;;;;;;;1999.90;999.90;;;15.10;99.90;;;;;;5014119;28;20439;-66
2022/08/08 04:05:04;;;;;;;1999.90;999.90;;;15.20;99.90;;;;;;5031775;28;20498;-66
2022/08/08 04:07:40;;;;;;;1999.90;999.90;;;15.20;99.90;;;;;;5031479;28;20413;-66
2022/08/08 04:10:07;;;;;;;1999.90;999.90;;;15.30;99.90;;;;;;5031722;28;20441;-66
2022/08/08 04:12:33;;;;;;;1999.90;999.90;;;15.30;99.90;;;;;;5031587;28;20462;-66
2022/08/08 04:14:59;;;;;;;1999.90;999.90;;;15.30;99.90;;;;;;5031758;28;20816;-66
2022/08/08 04:17:25;;;;;;;1999.90;999.90;;;15.30;99.90;;;;;;5031415;28;20403;-65
2022/08/08 04:19:51;;;;;;;1999.90;999.90;;;15.30;99.90;;;;;;5031690;28;20399;-66
2022/08/08 04:22:16;;;;;;;1999.90;999.90;;;15.20;99.90;;;;;;5031575;28;20258;-65
2022/08/08 04:24:42;;;;;;;1999.90;999.90;;;15.20;99.90;;;;;;5031728;28;20183;-66
2022/08/08 04:27:08;;;;;;;1999.90;999.90;;;15.20;99.90;;;;;;5031329;28;20172;-66
2022/08/08 04:29:33;;;;;;;1999.90;999.90;;;15.20;99.90;;;;;;5031550;28;20167;-65
2022/08/08 04:31:59;;;;;;;1999.90;999.90;;;15.20;99.90;;;;;;5031253;28;20202;-66
2022/08/08 04:34:25;;;;;;;1999.90;999.90;;;15.20;99.90;;;;;;5031587;28;20189;-66
2022/08/08 04:36:50;;;;;;;1999.90;999.90;;;15.20;99.90;;;;;;5031212;28;20167;-65
2022/08/08 04:39:16;;;;;;;1999.90;999.90;;;15.10;99.90;;;;;;5031453;28;20177;-66
2022/08/08 04:41:41;;;;;;;1999.90;999.90;;;15.10;99.90;;;;;;5031406;28;20524;-66
2022/08/08 04:44:07;;;;;;;1999.90;999.90;;;15.10;99.90;;;;;;5031472;28;20161;-65
2022/08/08 04:46:32;;;;;;;1999.90;999.90;;;15.00;99.90;;;;;;5031166;28;20794;-66
2022/08/08 04:48:58;;;;;;;1999.90;999.90;;;14.90;99.90;;;;;;5031381;28;20267;-66
2022/08/08 04:51:24;;;;;;;1999.90;999.90;;;14.90;99.90;;;;;;5031283;28;20166;-66
2022/08/08 04:53:49;;;;;;;1999.90;999.90;;;14.90;99.90;;;;;;5031259;28;20534;-66
2022/08/08 04:56:18;;;;;;;1999.90;999.90;;;14.90;99.90;;;;;;5031326;28;20202;-66
2022/08/08 04:58:44;;;;;;;1999.90;999.90;;;14.90;99.90;;;;;;5031375;28;20201;-66
2022/08/08 05:01:09;;;;;;;1999.90;999.90;;;14.90;99.90;;;;;;5033762;28;20439;-66
2022/08/08 05:03:35;;;;;;;1999.90;999.90;;;14.90;99.90;;;;;;5034761;28;20229;-66
2022/08/08 05:06:01;;;;;;;1999.90;999.90;;;15.00;99.90;;;;;;5034497;28;20178;-66
2022/08/08 05:08:27;;;;;;;1999.90;999.90;;;15.00;99.90;;;;;;5034745;28;20569;-66
2022/08/08 05:10:52;;;;;;;1999.90;999.90;;;15.10;99.90;;;;;;5034665;28;20408;-66
2022/08/08 05:13:18;;;;;;;1999.90;999.90;;;15.10;99.90;;;;;;5034489;28;20200;-66
2022/08/08 05:15:44;;;;;;;1999.90;999.90;;;15.10;99.90;;;;;;5034587;28;20259;-66
2022/08/08 05:18:10;;;;;;;1999.90;999.90;;;15.10;99.90;;;;;;5034301;28;20430;-66
2022/08/08 05:20:35;;;;;;;1999.90;999.90;;;15.10;99.90;;;;;;5034528;28;20170;-66
2022/08/08 05:23:01;;;;;;;1999.90;999.90;;;15.20;99.90;;;;;;5034383;28;20225;-66
2022/08/08 05:25:27;;;;;;;1999.90;999.90;;;15.20;99.90;;;;;;5034547;28;20204;-66
2022/08/08 05:27:52;;;;;;;1999.90;999.90;;;15.20;99.90;;;;;;5047457;28;20177;-65
2022/08/08 05:30:18;;;;;;;1999.90;999.90;;;15.30;99.90;;;;;;5047300;28;20172;-66
2022/08/08 05:32:44;;;;;;;1999.90;999.90;;;15.30;99.90;;;;;;5047398;28;20209;-67
2022/08/08 05:35:13;;;;;;;1999.90;999.90;;;15.30;99.90;;;;;;5024929;28;20416;-65
2022/08/08 05:37:45;;;;;;;1999.90;999.90;;;15.30;99.90;;;;;;5033856;28;21019;-66
2022/08/08 05:40:12;;;;;;;1999.90;999.90;;;15.40;99.90;;;;;;5034183;28;20392;-66
2022/08/08 05:42:44;;;;;;;1999.90;999.90;;;15.50;99.90;;;;;;5034017;28;20512;-66
2022/08/08 05:45:13;;;;;;;1999.90;999.90;;;15.50;99.90;;;;;;5034022;28;20410;-66
2022/08/08 05:47:40;;;;;;;1999.90;999.90;;;15.50;99.90;;;;;;5033741;28;20415;-66
2022/08/08 05:50:07;;;;;;;1999.90;999.90;;;15.60;99.90;;;;;;5034005;28;20480;-66
2022/08/08 05:52:34;;;;;;;1999.90;999.90;;;15.60;99.90;;;;;;5035394;28;20459;-67
2022/08/08 05:55:00;;;;;;;1999.90;999.90;;;15.60;99.90;;;;;;5046491;28;20437;-67
2022/08/08 05:57:27;;;;;;;1999.90;999.90;;;15.70;99.90;;;;;;5046445;28;20405;-66
2022/08/08 05:59:57;;;;;;;1999.90;999.90;;;15.80;99.90;;;;;;5046947;28;20403;-67
2022/08/08 06:05:11;;;;;;;1999.90;999.90;;;15.90;99.90;;;;;;5047249;28;20421;-65
2022/08/08 06:07:41;;;;;;;1999.90;999.90;;;16.00;99.90;;;;;;5046308;28;20480;-65
2022/08/08 06:10:11;;;;;;;1999.90;999.90;;;16.10;99.90;;;;;;5046785;28;20758;-67
2022/08/08 06:12:38;;;;;;;1999.90;999.90;;;16.20;99.90;;;;;;5046053;28;20458;-66
2022/08/08 06:15:06;;;;;;;1999.90;999.90;;;16.40;99.90;;;;;;5046011;28;20408;-65
2022/08/08 06:17:37;;;;;;;1999.90;999.90;;;16.40;99.90;;;;;;5045545;28;20407;-67
2022/08/08 06:20:09;;;;;;;1999.90;999.90;;;16.50;99.90;;;;;;5029787;28;20395;-66
2022/08/08 06:22:35;;;;;;;1999.90;999.90;;;16.60;99.90;;;;;;5046781;28;20426;-66
2022/08/08 06:25:01;;;;;;;1999.90;999.90;;;16.60;99.90;;;;;;5045679;28;20494;-67
2022/08/08 06:27:36;;;;;;;1999.90;999.90;;;16.60;99.90;;;;;;5045250;28;20416;-66
2022/08/08 06:30:07;;;;;;;1999.90;999.90;;;16.60;99.90;;;;;;5028992;28;20421;-65
2022/08/08 06:32:47;;;;;;;1999.90;999.90;;;16.70;99.90;;;;;;5046564;28;20472;-65
2022/08/08 06:35:14;;;;;;;1999.90;999.90;;;16.90;99.90;;;;;;5045909;28;20407;-66
2022/08/08 06:37:55;;;;;;;1999.90;999.90;;;17.00;99.90;;;;;;5045479;28;20406;-65
2022/08/08 06:40:23;;;;;;;1999.90;999.90;;;17.00;99.90;;;;;;5046152;28;20424;-67
2022/08/08 06:42:56;;;;;;;1999.90;999.90;;;17.20;99.90;;;;;;5046453;28;20427;-66
2022/08/08 06:45:22;;;;;;;1999.90;999.90;;;17.30;99.90;;;;;;5028097;28;20427;-66
2022/08/08 06:47:49;;;;;;;1999.90;999.90;;;17.40;99.90;;;;;;5044420;28;20411;-66
2022/08/08 06:50:15;;;;;;;1999.90;999.90;;;17.30;99.90;;;;;;5046344;28;20413;-66
2022/08/08 06:52:41;;;;;;;1999.90;999.90;;;17.40;99.90;;;;;;5027867;28;20847;-65
2022/08/08 06:55:08;;;;;;;1999.90;999.90;;;17.50;99.90;;;;;;5045052;28;20606;-67
2022/08/08 06:57:34;;;;;;;1999.90;999.90;;;17.60;99.90;;;;;;5045027;28;20414;-66
2022/08/08 07:00:03;;;;;;;1999.90;999.90;;;17.70;99.90;;;;;;5045305;28;20411;-66
2022/08/08 07:02:32;;;;;;;1999.90;999.90;;;17.80;99.90;;;;;;5044262;28;20441;-66
2022/08/08 07:05:18;;;;;;;1999.90;999.90;;;17.80;99.90;;;;;;5044813;28;20417;-65
2022/08/08 07:07:52;;;;;;;1999.90;999.90;;;17.80;99.90;;;;;;5009881;28;20425;-67
2022/08/08 07:10:20;;;;;;;1999.90;999.90;;;18.00;99.90;;;;;;5044178;28;20414;-66
2022/08/08 07:13:02;;;;;;;1999.90;999.90;;;18.10;99.90;;;;;;5032069;28;20483;-66
2022/08/08 07:15:56;;;;;;;1999.90;999.90;;;18.30;99.90;;;;;;5032366;28;20512;-66
2022/08/08 07:18:35;;;;;;;1999.90;999.90;;;18.20;99.90;;;;;;5032265;28;20404;-66
2022/08/08 07:21:06;;;;;;;1999.90;999.90;;;18.40;99.90;;;;;;5032185;28;20924;-66
2022/08/08 07:23:43;;;;;;;1999.90;999.90;;;18.50;99.90;;;;;;5031414;28;20842;-66
2022/08/08 07:26:09;;;;;;;1999.90;999.90;;;18.70;99.90;;;;;;5032050;28;20404;-65
2022/08/08 07:28:36;;;;;;;1999.90;999.90;;;18.80;99.90;;;;;;5032263;28;20882;-67
2022/08/08 07:31:04;;;;;;;1999.90;999.90;;;18.80;99.90;;;;;;5032104;28;20410;-65
2022/08/08 07:33:30;;;;;;;1999.90;999.90;;;18.90;99.90;;;;;;5031826;28;20472;-66
2022/08/08 07:35:59;;;;;;;1999.90;999.90;;;19.00;99.90;;;;;;5031673;28;20399;-68
2022/08/08 07:38:27;;;;;;;1999.90;999.90;;;19.10;99.90;;;;;;5031954;28;20405;-66
2022/08/08 07:40:57;;;;;;;1999.90;999.90;;;19.20;99.90;;;;;;5032076;28;20959;-66
2022/08/08 07:43:23;;;;;;;1999.90;999.90;;;19.20;99.90;;;;;;5031996;28;20422;-66
2022/08/08 07:45:49;;;;;;;1999.90;999.90;;;19.20;99.90;;;;;;5031912;28;20524;-66
2022/08/08 07:48:15;;;;;;;1999.90;999.90;;;19.20;99.90;;;;;;5031709;28;20856;-66
2022/08/08 07:50:42;;;;;;;1999.90;999.90;;;19.40;99.90;;;;;;5031877;28;20179;-66
2022/08/08 07:53:39;;;;;;;1999.90;999.90;;;19.60;99.90;;;;;;5031711;28;20212;-66
2022/08/08 07:56:09;;;;;;;1999.90;999.90;;;19.60;99.90;;;;;;5030679;28;20477;-66
2022/08/08 07:58:41;;;;;;;1999.90;999.90;;;19.70;99.90;;;;;;5031683;28;20410;-65
2022/08/08 08:01:10;;;;;;;1999.90;999.90;;;19.80;99.90;;;;;;5031734;28;20893;-66
2022/08/08 08:03:56;;;;;;;1999.90;999.90;;;19.80;99.90;;;;;;5031765;28;20427;-66
2022/08/08 08:06:26;;;;;;;1999.90;999.90;;;19.90;99.90;;;;;;5031579;28;20457;-66
2022/08/08 08:09:05;;;;;;;1999.90;999.90;;;19.90;99.90;;;;;;5031663;28;20476;-66
2022/08/08 08:11:34;;;;;;;1999.90;999.90;;;20.10;99.90;;;;;;5031672;28;20853;-66
2022/08/08 08:14:05;;;;;;;1999.90;999.90;;;20.30;99.90;;;;;;5031383;28;20433;-66
2022/08/08 08:16:38;;;;;;;1999.90;999.90;;;20.40;99.90;;;;;;5031350;28;20408;-65
2022/08/08 08:19:09;;;;;;;1999.90;999.90;;;20.40;99.90;;;;;;5031595;28;20404;-66
2022/08/08 08:21:39;;;;;;;1999.90;999.90;;;20.60;99.90;;;;;;5031633;28;20402;-66
2022/08/08 08:24:05;;;;;;;1999.90;999.90;;;20.60;99.90;;;;;;5031587;28;20433;-66
2022/08/08 08:26:31;;;;;;;1999.90;999.90;;;20.80;99.90;;;;;;5031406;28;20395;-67
2022/08/08 08:28:57;;;;;;;1999.90;999.90;;;21.10;99.90;;;;;;5031673;28;20382;-66
2022/08/08 08:31:23;;;;;;;1999.90;999.90;;;21.10;99.90;;;;;;5031677;28;20174;-66
2022/08/08 08:33:49;;;;;;;1999.90;999.90;;;21.10;99.90;;;;;;5031780;28;20506;-66
2022/08/08 08:36:17;;;;;;;1999.90;999.90;;;21.20;99.90;;;;;;5035054;28;20406;-66
2022/08/08 08:38:43;;;;;;;1999.90;999.90;;;21.40;99.90;;;;;;5035283;28;20171;-66
2022/08/08 08:41:11;;;;;;;1999.90;999.90;;;21.40;99.90;;;;;;5035229;28;20401;-66
2022/08/08 08:43:38;;;;;;;1999.90;999.90;;;21.30;99.90;;;;;;5035258;28;20196;-66
2022/08/08 08:46:08;;;;;;;1999.90;999.90;;;21.30;99.90;;;;;;5034921;28;20407;-67
2022/08/08 08:48:34;;;;;;;1999.90;999.90;;;21.40;99.90;;;;;;5035017;28;20906;-66
2022/08/08 08:51:01;;;;;;;1999.90;999.90;;;21.60;99.90;;;;;;5035007;28;20412;-66
2022/08/08 08:53:29;;;;;;;1999.90;999.90;;;21.70;99.90;;;;;;5034730;28;20518;-66
2022/08/08 08:55:56;;;;;;;1999.90;999.90;;;21.90;99.90;;;;;;5034931;28;20476;-66
2022/08/08 08:58:34;;;;;;;1999.90;999.90;;;22.00;99.90;;;;;;5034749;28;20372;-66
2022/08/08 09:01:01;;;;;;;1999.90;999.90;;;22.00;99.90;;;;;;5034769;28;20416;-66
2022/08/08 09:03:28;;;;;;;1999.90;999.90;;;22.10;99.90;;;;;;5032910;28;20757;-66
2022/08/08 09:05:55;;;;;;;1999.90;999.90;;;22.20;99.90;;;;;;5034439;28;20410;-67
2022/08/08 09:08:24;;;;;;;1999.90;999.90;;;22.40;99.90;;;;;;5034220;28;20834;-66
2022/08/08 09:10:50;;;;;;;1999.90;999.90;;;22.40;99.90;;;;;;5034319;28;20416;-66
2022/08/08 09:13:16;;;;;;;1999.90;999.90;;;22.50;99.90;;;;;;5034120;28;20458;-65
2022/08/08 09:15:42;;;;;;;1999.90;999.90;;;22.70;99.90;;;;;;5034142;28;20381;-67
2022/08/08 09:18:08;;;;;;;1999.90;999.90;;;22.90;99.90;;;;;;5033909;28;20733;-67
2022/08/08 09:20:36;;;;;;;1999.90;999.90;;;23.00;99.90;;;;;;5034138;28;20399;-66
2022/08/08 09:23:03;;;;;;;1999.90;999.90;;;23.10;99.90;;;;;;5034140;28;20188;-67
2022/08/08 09:25:29;;;;;;;1999.90;999.90;;;23.10;99.90;;;;;;5034123;28;20376;-66
2022/08/08 09:27:56;;;;;;;1999.90;999.90;;;23.10;99.90;;;;;;5033609;28;20386;-66
2022/08/08 09:30:24;;;;;;;1999.90;999.90;;;23.10;99.90;;;;;;5033832;28;20178;-66
2022/08/08 09:32:55;;;;;;;1999.90;999.90;;;23.30;99.90;;;;;;5033874;28;20481;-66
2022/08/08 09:35:27;;;;;;;1999.90;999.90;;;23.50;99.90;;;;;;5033872;28;20378;-67
2022/08/08 09:37:59;;;;;;;1999.90;999.90;;;23.50;99.90;;;;;;5033639;28;20418;-66
2022/08/08 09:40:26;;;;;;;1999.90;999.90;;;23.60;99.90;;;;;;5033760;28;20373;-66
2022/08/08 09:43:11;;;;;;;1999.90;999.90;;;23.70;99.90;;;;;;5015990;28;20408;-66
2022/08/08 09:46:00;;;;;;;1999.90;999.90;;;23.70;99.90;;;;;;5032812;28;20494;-66
2022/08/08 09:48:30;;;;;;;1999.90;999.90;;;23.90;99.90;;;;;;5033600;28;20384;-67
2022/08/08 09:50:57;;;;;;;1999.90;999.90;;;23.90;99.90;;;;;;5033584;28;20403;-67
2022/08/08 09:53:49;;;;;;;1999.90;999.90;;;24.00;99.90;;;;;;5033525;28;20454;-66
2022/08/08 09:56:16;;;;;;;1999.90;999.90;;;24.30;99.30;;;;;;5027528;28;20422;-66
2022/08/08 09:58:52;;;;;;;1999.90;999.90;;;24.50;96.70;;;;;;5033410;28;20777;-66
2022/08/08 10:01:22;;;;;;;1999.90;999.90;;;24.70;96.10;;;;;;5033298;28;20433;-65
2022/08/08 10:03:49;;;;;;;1999.90;999.90;;;24.70;95.20;;;;;;5033396;28;20431;-67
2022/08/08 10:06:20;;;;;;;1999.90;999.90;;;24.50;95.70;;;;;;5032956;28;20403;-66
2022/08/08 10:08:50;;;;;;;1999.90;999.90;;;24.50;95.20;;;;;;5033167;28;20414;-68
2022/08/08 10:11:17;;;;;;;1999.90;999.90;;;24.70;94.50;;;;;;5029865;28;20413;-68
2022/08/08 10:14:02;;;;;;;1999.90;999.90;;;24.80;92.60;;;;;;5032689;28;20455;-68
2022/08/08 10:16:38;;;;;;;1999.90;999.90;;;24.80;91.40;;;;;;5032422;28;20453;-68
2022/08/08 10:19:05;;;;;;;1999.90;999.90;;;24.80;90.40;;;;;;5032727;28;20939;-68
2022/08/08 10:21:35;;;;;;;1999.90;999.90;;;24.80;87.70;;;;;;5032661;28;20464;-68
2022/08/08 10:24:10;;;;;;;1999.90;999.90;;;24.80;86.80;;;;;;5031677;28;20397;-68
2022/08/08 10:26:52;;;;;;;1999.90;999.90;;;24.90;86.20;;;;;;5032087;28;20396;-66
2022/08/08 10:30:00;;;;;;;1999.90;999.90;;;25.00;83.60;;;;;;5032570;28;20403;-68
2022/08/08 10:32:39;;;;;;;1999.90;999.90;;;25.20;81.20;;;;;;5031565;28;20576;-65
2022/08/08 10:35:14;;;;;;;1999.90;999.90;;;25.40;78.70;;;;;;5032447;28;20405;-67
2022/08/08 10:37:58;;;;;;;1999.90;999.90;;;25.40;75.30;;;;;;5031980;28;20413;-67
2022/08/08 10:40:27;;;;;;;1999.90;999.90;;;25.60;74.10;;;;;;5031906;28;20498;-67
2022/08/08 10:42:56;;;;;;;1999.90;999.90;;;25.80;74.60;;;;;;5032126;28;20422;-67
2022/08/08 10:45:22;;;;;;;1999.90;999.90;;;26.10;70.90;;;;;;5032003;28;20399;-67
2022/08/08 10:47:56;;;;;;;1999.90;999.90;;;26.00;69.70;;;;;;5031400;28;20377;-67
2022/08/08 10:50:42;;;;;;;1999.90;999.90;;;25.90;66.60;;;;;;5032021;28;20406;-67
2022/08/08 10:53:15;;;;;;;1999.90;999.90;;;25.90;64.30;;;;;;5031595;28;20462;-67
2022/08/08 10:55:41;;;;;;;1999.90;999.90;;;25.80;60.90;;;;;;5031540;28;20449;-67
2022/08/08 10:58:09;;;;;;;1999.90;999.90;;;25.70;60.10;;;;;;5031409;28;20472;-67
2022/08/08 11:00:41;;;;;;;1999.90;999.90;;;25.70;60.60;;;;;;5031855;28;20407;-67
2022/08/08 11:03:12;;;;;;;1999.90;999.90;;;25.70;60.70;;;;;;5031359;28;20461;-67
2022/08/08 11:05:49;;;;;;;1999.90;999.90;;;25.70;60.20;;;;;;5031645;28;20453;-67
2022/08/08 11:08:35;;;;;;;1999.90;999.90;;;26.00;60.70;;;;;;5031383;28;20439;-67
2022/08/08 11:11:05;;;;;;;1999.90;999.90;;;26.10;58.70;;;;;;5031729;28;20961;-67
2022/08/08 11:13:44;;;;;;;1999.90;999.90;;;25.90;59.50;;;;;;5031809;28;20852;-67
2022/08/08 11:16:23;;;;;;;1999.90;999.90;;;26.10;60.40;;;;;;5030786;28;20485;-67
2022/08/08 11:18:50;;;;;;;1999.90;999.90;;;26.10;57.50;;;;;;5031557;28;20479;-67
2022/08/08 11:21:17;;;;;;;1999.90;999.90;;;26.00;58.00;;;;;;5031480;28;20373;-67
2022/08/08 11:23:43;;;;;;;1999.90;999.90;;;25.90;56.90;;;;;;5030878;28;20397;-67
2022/08/08 11:26:16;;;;;;;1999.90;999.90;;;26.10;56.60;;;;;;5031315;28;20415;-67
2022/08/08 11:28:43;;;;;;;1999.90;999.90;;;26.10;56.80;;;;;;5031456;28;20399;-67
2022/08/08 11:31:11;;;;;;;1999.90;999.90;;;26.30;57.10;;;;;;5030640;28;20506;-67
2022/08/08 11:33:38;;;;;;;1999.90;999.90;;;26.80;57.90;;;;;;5031066;28;20463;-67
2022/08/08 11:36:04;;;;;;;1999.90;999.90;;;27.30;55.20;;;;;;5031139;28;20485;-67
2022/08/08 11:38:30;;;;;;;1999.90;999.90;;;27.10;53.30;;;;;;5030833;28;20411;-67
2022/08/08 11:40:56;;;;;;;1999.90;999.90;;;27.00;52.50;;;;;;5031320;28;20424;-67
2022/08/08 11:43:25;;;;;;;1999.90;999.90;;;26.90;53.00;;;;;;5031217;28;20184;-67
2022/08/08 11:45:52;;;;;;;1999.90;999.90;;;27.10;51.60;;;;;;5031005;28;20219;-67
2022/08/08 11:48:18;;;;;;;1999.90;999.90;;;26.90;51.60;;;;;;5030999;28;20409;-67
2022/08/08 11:50:45;;;;;;;1999.90;999.90;;;27.00;52.20;;;;;;5031220;28;20398;-67
2022/08/08 11:53:11;;;;;;;1999.90;999.90;;;27.10;49.20;;;;;;5030538;28;20454;-67
2022/08/08 11:55:48;;;;;;;1999.90;999.90;;;27.10;48.90;;;;;;5031097;28;20783;-67
2022/08/08 11:58:14;;;;;;;1999.90;999.90;;;27.00;49.00;;;;;;5030827;28;20927;-67
2022/08/08 12:00:46;;;;;;;1999.90;999.90;;;27.40;48.80;;;;;;5030578;28;20410;-67
2022/08/08 12:03:18;;;;;;;1999.90;999.90;;;27.70;46.90;;;;;;5030956;28;20191;-67
2022/08/08 12:05:45;;;;;;;1999.90;999.90;;;28.20;46.60;;;;;;5031028;28;20405;-67
2022/08/08 12:08:15;;;;;;;1999.90;999.90;;;28.80;42.20;;;;;;5030475;28;20562;-68
2022/08/08 12:10:49;;;;;;;1999.90;999.90;;;29.60;43.60;;;;;;5034419;28;20385;-67
2022/08/08 12:13:21;;;;;;;1999.90;999.90;;;30.40;37.60;;;;;;5034747;28;20449;-67
2022/08/08 12:15:49;;;;;;;1999.90;999.90;;;31.00;33.60;;;;;;5034544;28;20766;-68
2022/08/08 12:18:20;;;;;;;1999.90;999.90;;;31.50;32.90;;;;;;5034765;28;20439;-68
2022/08/08 12:20:46;;;;;;;1999.90;999.90;;;31.40;29.00;;;;;;5034825;28;20429;-67
2022/08/08 12:23:12;;;;;;;1999.90;999.90;;;31.30;29.00;;;;;;5034020;28;20418;-67
2022/08/08 12:25:39;;;;;;;1999.90;999.90;;;31.40;29.40;;;;;;5034840;28;20418;-67
2022/08/08 12:28:07;;;;;;;1999.90;999.90;;;31.50;27.80;;;;;;5034681;28;20169;-67
2022/08/08 12:30:34;;;;;;;1999.90;999.90;;;31.50;27.60;;;;;;5034212;28;20767;-67
2022/08/08 12:33:01;;;;;;;1999.90;999.90;;;31.70;26.80;;;;;;5034563;28;20466;-67
2022/08/08 12:35:37;;;;;;;1999.90;999.90;;;32.20;27.00;;;;;;5034418;28;20411;-67